NEODyS-2

Near Earth Objects - Dynamic Site
NEODyS ∴ Observatories ∴ Site 691 ∴ Obs & residuals
Contact »
691  ▹ 
OBSERVATIONS AND RESIDUALS

691-Steward Observatory, Kitt Peak-Spacewatch

Detections | Residuals | Detections & Residuals

[1-200] [201-400] [401-600] [601-800] [801-1000] [1001-1200] [1201-1400] [1401-1600] [1601-1800] [1801-2000] [2001-2200] [2201-2400] [2401-2600] [2601-2800] [2801-3000] [3001-3200] [3201-3400] [3401-3600] [3601-3800] [3801-4000] [4001-4200] [4201-4400] [4401-4600] [4601-4800] [4801-5000] [5001-5200] [5201-5400] [5401-5600] [5601-5800] [5801-6000] [6001-6200] [6201-6400] [6401-6600] [6601-6800] [6801-7000] [7001-7200] [7201-7400] [7401-7600] [7601-7800] [7801-8000] [8001-8200] [8201-8400] [8401-8600] [8601-8800] [8801-9000] [9001-9200] [9201-9400] [9401-9600] [9601-9800] [9801-10000] [10001-10200] [10201-10400] [10401-10600] [10601-10800] [10801-11000] [11001-11200] [11201-11400] [11401-11600] [11601-11800] [11801-12000] [12001-12200] [12201-12400] [12401-12600] [12601-12800] [12801-13000] [13001-13200] [13201-13400] [13401-13600] [13601-13800] [13801-14000] [14001-14200] [14201-14400] [14401-14600] [14601-14800] [14801-15000] [15001-15200] [15201-15400] [15401-15600] [15601-15800] [15801-16000] [16001-16200] [16201-16400] [16401-16600] [16601-16800] [16801-17000] [17001-17200] [17201-17400] [17401-17600] [17601-17800] [17801-18000] [18001-18200] [18201-18400] [18401-18600] [18601-18800] [18801-19000] [19001-19200] [19201-19400] [19401-19600] [19601-19800] [19801-20000] [20001-20200] [20201-20400] [20401-20600] [20601-20800] [20801-21000] [21001-21200] [21201-21400] [21401-21600] [21601-21800] [21801-22000] [22001-22200] [22201-22400] [22401-22600] [22601-22800] [22801-23000] [23001-23200] [23201-23400] [23401-23600] [23601-23800] [23801-24000] [24001-24200] [24201-24400] [24401-24600] [24601-24800] [24801-25000] [25001-25200] [25201-25400] [25401-25600] [25601-25800] [25801-26000] [26001-26200] [26201-26400] [26401-26600] [26601-26800] [26801-27000] [27001-27200] [27201-27400] [27401-27600] [27601-27800] [27801-28000] [28001-28200] [28201-28400] [28401-28600] [28601-28800] [28801-29000] [29001-29200] [29201-29400] [29401-29600] [29601-29800] [29801-30000] [30001-30200] [30201-30400] [30401-30600] [30601-30800] [30801-31000] [31001-31200] [31201-31400] [31401-31600] [31601-31800] [31801-32000] [32001-32200] [32201-32400] [32401-32600] [32601-32800] [32801-33000] [33001-33200] [33201-33400] [33401-33600] [33601-33800] [33801-34000] [34001-34200] [34201-34400] [34401-34600] [34601-34800] [34801-35000] [35001-35200] [35201-35400] [35401-35600] [35601-35800] [35801-36000] [36001-36200] [36201-36400] [36401-36600] [36601-36800] [36801-37000] [37001-37200] [37201-37400] [37401-37600] [37601-37800] [37801-38000] [38001-38200] [38201-38400] [38401-38600] [38601-38800] [38801-39000] [39001-39200] [39201-39400] [39401-39600] [39601-39800] [39801-40000] [40001-40200] [40201-40400] [40401-40600] [40601-40800] [40801-41000] [41001-41200] [41201-41400] [41401-41600] [41601-41800] [41801-42000] [42001-42200] [42201-42400] [42401-42600] [42601-42800] [42801-43000] [43001-43200] [43201-43400] [43401-43600] [43601-43800] [43801-44000] [44001-44200] [44201-44400] [44401-44600] [44601-44800] [44801-45000] [45001-45200] [45201-45400] [45401-45600] [45601-45800] [45801-46000] [46001-46200] [46201-46400] [46401-46600] [46601-46800] [46801-47000] [47001-47200] [47201-47400] [47401-47600] [47601-47800] [47801-48000] [48001-48200] [48201-48400] [48401-48600] [48601-48800] [48801-49000] [49001-49200] [49201-49400] [49401-49600] [49601-49800] [49801-50000] [50001-50200] [50201-50388]

Designation T Tech N Date Right Ascension Declination Apparent Magnitude Star Catalog Site code χ Used A Used M
yr-mo-day precision hr:min:sec precision rms F bias residual deg min sec precision rms F bias residual mag/col rms residual
1991WA O C 2009-09-23.48578 1.000E-05 07:32:26.080 1.500E-01 0.500 F -0.003 -0.688 +19° 01' 05.50" 1.000E-01 0.500 F 0.191 -0.057 19.9 V 0.70 0.35 o 691 1.38 Yes Yes
1991WA O C 2009-09-23.49844 1.000E-05 07:32:26.970 1.500E-01 0.500 F -0.003 -0.352 +19° 01' 21.10" 1.000E-01 0.500 F 0.191 0.120 20.3 V 0.70 0.75 o 691 0.74 Yes Yes
2005YX128 O C H 2009-09-24.16498 1.000E-05 21:47:08.210 1.500E-01 0.500 F 0.025 -0.352 -04° 10' 43.10" 1.000E-01 0.500 F 0.239 -0.925 21.2 V 0.70 0.20 o 691 2.01 Yes Yes
2001TC2 O C 2009-09-24.41496 1.000E-05 02:13:37.230 1.500E-01 0.500 F -0.259 -0.285 +18° 35' 53.00" 1.000E-01 0.500 F 0.242 -0.102 18.7 V 0.70 0.15 o 691 0.61 Yes Yes
2001TC2 O C 2009-09-24.43265 1.000E-05 02:13:36.060 1.500E-01 0.500 F -0.259 -0.267 +18° 34' 48.10" 1.000E-01 0.500 F 0.242 -0.103 18.7 V 0.70 0.15 o 691 0.58 Yes Yes
2005CK38 O C H 2009-09-24.44278 1.000E-05 02:16:42.610 1.500E-01 0.500 F -0.277 0.165 +17° 21' 40.30" 1.000E-01 0.500 F 0.270 0.000 o 691 0.33 Yes No
2001TC2 O C 2009-09-24.45034 1.000E-05 02:13:34.910 1.500E-01 0.500 F -0.259 -0.001 +18° 33' 43.10" 1.000E-01 0.500 F 0.242 -0.092 18.7 V 0.70 0.15 o 691 0.19 Yes Yes
2009RB4 O C 2009-09-25.23035 1.000E-05 01:15:20.260 1.500E-01 0.500 F -0.197 -0.955 +04° 57' 15.00" 1.000E-01 0.500 F 0.247 0.413 20.1 V 0.70 0.70 o 691 2.09 Yes Yes
2009QF34 O C 2009-09-25.23553 1.000E-05 00:59:37.120 1.500E-01 0.500 F -0.236 -0.089 +03° 27' 37.80" 1.000E-01 0.500 F 0.241 0.111 20.9 V 0.70 -0.17 o 691 0.31 Yes Yes
2001SX169 O C H 2009-09-25.24046 1.000E-05 01:15:36.980 1.500E-01 0.500 F -0.160 -0.488 +02° 53' 48.70" 1.000E-01 0.500 F 0.255 -0.151 20.7 V 0.70 0.55 o 691 1.03 Yes Yes
2009RB4 O C 2009-09-25.24807 1.000E-05 01:15:18.870 1.500E-01 0.500 F -0.197 -0.480 +04° 56' 54.60" 1.000E-01 0.500 F 0.247 -0.033 19.5 V 0.70 0.10 o 691 0.97 Yes Yes
2009QF34 O C 2009-09-25.25325 1.000E-05 00:59:37.060 1.500E-01 0.500 F -0.236 -0.580 +03° 27' 32.20" 1.000E-01 0.500 F 0.241 -0.399 21.3 V 0.70 0.23 o 691 1.55 Yes Yes
2001SX169 O C H 2009-09-25.25818 1.000E-05 01:15:35.310 1.500E-01 0.500 F -0.160 0.199 +02° 53' 36.20" 1.000E-01 0.500 F 0.255 -0.015 20.3 V 0.70 0.15 o 691 0.40 Yes Yes
2009RB4 O C 2009-09-25.26574 1.000E-05 01:15:17.440 1.500E-01 0.500 F -0.197 -0.577 +04° 56' 34.60" 1.000E-01 0.500 F 0.247 -0.125 19.4 V 0.70 0.00 o 691 1.19 Yes Yes
2009QF34 O C 2009-09-25.27092 1.000E-05 00:59:37.070 1.500E-01 0.500 F -0.236 0.148 +03° 27' 27.30" 1.000E-01 0.500 F 0.241 -0.206 21.3 V 0.70 0.23 o 691 0.55 Yes Yes
2001SX169 O C H 2009-09-25.27585 1.000E-05 01:15:33.610 1.500E-01 0.500 F -0.160 0.433 +02° 53' 22.70" 1.000E-01 0.500 F 0.255 -0.906 o 691 2.01 Yes No
2003TK O C 2009-09-25.34712 1.000E-05 01:40:07.010 1.500E-01 0.500 F -0.324 -0.533 +18° 51' 06.10" 1.000E-01 0.500 F 0.262 -0.356 20.9 V 0.70 -0.68 o 691 1.32 Yes Yes
2003TK O C 2009-09-25.36483 1.000E-05 01:40:05.640 1.500E-01 0.500 F -0.324 0.246 +18° 50' 58.80" 1.000E-01 0.500 F 0.262 0.373 21.0 V 0.70 -0.58 o 691 0.92 Yes Yes
2009SK O C t 2009-09-25.36976 1.000E-05 01:51:32.500 1.500E-01 0.500 F -0.359 0.779 +17° 29' 52.20" 1.000E-01 0.500 F 0.236 -0.219 20.5 V 0.70 0.25 o 691 1.82 Yes Yes
2003TK O C 2009-09-25.38252 1.000E-05 01:40:04.160 1.500E-01 0.500 F -0.324 -0.552 +18° 50' 50.50" 1.000E-01 0.500 F 0.262 0.131 21.1 V 0.70 -0.48 o 691 1.16 Yes Yes
2009SK O C t 2009-09-25.38746 1.000E-05 01:51:47.470 1.500E-01 0.500 F -0.359 0.282 +17° 31' 25.50" 1.000E-01 0.500 F 0.236 -0.670 20.6 V 0.70 0.35 o 691 1.58 Yes Yes
1998SO10 O C H 2009-09-25.40355 1.000E-05 02:02:13.420 1.500E-01 0.500 F -0.141 0.198 +07° 46' 42.30" 1.000E-01 0.500 F 0.203 0.142 20.8 V 0.70 -0.05 o 691 0.49 Yes Yes
1998SO10 O C H 2009-09-25.42123 1.000E-05 02:02:12.450 1.500E-01 0.500 F -0.141 0.482 +07° 46' 31.10" 1.000E-01 0.500 F 0.203 -0.462 o 691 1.34 Yes No
1998SO10 O C H 2009-09-25.43890 1.000E-05 02:02:11.410 1.500E-01 0.500 F -0.141 -0.287 +07° 46' 20.90" 1.000E-01 0.500 F 0.203 -0.066 20.8 V 0.70 -0.05 o 691 0.59 Yes Yes
2003CR20 O C t 2009-09-25.44630 1.000E-05 02:25:41.000 1.500E-01 0.500 F -0.143 -0.003 +08° 42' 36.40" 1.000E-01 0.500 F 0.259 -0.837 16.5 V 0.70 -0.04 o 691 1.72 Yes Yes
1992QN O C 2009-09-26.17244 1.000E-05 00:25:55.610 1.500E-01 0.500 F -0.136 -0.105 +07° 20' 00.00" 1.000E-01 0.500 F 0.311 0.122 17.9 V 0.70 0.57 o 691 0.32 Yes Yes
1992QN O C 2009-09-26.19004 1.000E-05 00:25:52.850 1.500E-01 0.500 F -0.136 -0.225 +07° 19' 54.60" 1.000E-01 0.500 F 0.311 -0.082 19.3 V 0.70 1.97 o 691 0.48 Yes Yes
1992QN O C 2009-09-26.20765 1.000E-05 00:25:50.090 1.500E-01 0.500 F -0.136 -0.214 +07° 19' 49.60" 1.000E-01 0.500 F 0.311 0.135 18.4 V 0.70 1.07 o 691 0.51 Yes Yes
2009SM104 O C 2009-09-26.23119 1.000E-05 00:48:43.850 1.500E-01 0.500 F -0.215 -0.008 +10° 40' 24.00" 1.000E-01 0.500 F 0.260 -0.022 20.1 V 0.70 -0.34 o 691 0.05 Yes Yes
2003SA224 O C 2009-09-26.23610 1.000E-05 01:00:58.710 1.500E-01 0.500 F -0.099 -0.233 +10° 36' 47.20" 1.000E-01 0.500 F 0.312 0.070 18.4 V 0.70 0.32 o 691 0.49 Yes Yes
2009SM104 O C 2009-09-26.24882 1.000E-05 00:48:37.780 1.500E-01 0.500 F -0.215 -0.918 +10° 41' 02.70" 1.000E-01 0.500 F 0.260 0.372 20.5 V 0.70 0.07 o 691 2.11 Yes Yes
2001SK162 O C H 2009-09-26.25374 1.000E-05 01:06:23.880 1.500E-01 0.500 F -0.111 -0.266 +11° 31' 07.80" 1.000E-01 0.500 F 0.325 0.011 19.5 V 0.70 0.72 o 691 0.53 Yes Yes
2003SA224 O C 2009-09-26.25374 1.000E-05 01:00:56.960 1.500E-01 0.500 F -0.140 -0.270 +10° 36' 49.10" 1.000E-01 0.500 F 0.303 -0.032 18.4 V 0.70 0.32 o 691 0.54 Yes Yes
2009SM104 O C 2009-09-26.26644 1.000E-05 00:48:31.810 1.500E-01 0.500 F -0.215 0.026 +10° 41' 40.50" 1.000E-01 0.500 F 0.260 -0.048 20.0 V 0.70 -0.43 o 691 0.12 Yes Yes
2001SK162 O C H 2009-09-26.27135 1.000E-05 01:06:22.750 1.500E-01 0.500 F -0.111 -0.279 +11° 31' 04.20" 1.000E-01 0.500 F 0.325 -0.125 19.3 V 0.70 0.52 o 691 0.61 Yes Yes
2003SA224 O C 2009-09-26.27135 1.000E-05 01:00:55.220 1.500E-01 0.500 F -0.140 -0.183 +10° 36' 51.20" 1.000E-01 0.500 F 0.303 0.079 18.4 V 0.70 0.32 o 691 0.40 Yes Yes
2002TE66 O C t 2009-09-26.29064 1.000E-05 01:14:42.550 1.500E-01 0.500 F -0.216 0.244 +14° 18' 37.60" 1.000E-01 0.500 F 0.253 -0.395 19.1 V 0.70 0.54 o 691 0.94 Yes Yes
2002TE66 O C t 2009-09-26.30826 1.000E-05 01:14:40.880 1.500E-01 0.500 F -0.216 0.357 +14° 17' 11.30" 1.000E-01 0.500 F 0.253 -0.504 19.2 V 0.70 0.65 o 691 1.25 Yes Yes
2002TE66 O C t 2009-09-26.32593 1.000E-05 01:14:39.190 1.500E-01 0.500 F -0.216 0.314 +14° 15' 45.00" 1.000E-01 0.500 F 0.253 -0.255 19.0 V 0.70 0.45 o 691 0.82 Yes Yes
2009SS104 O C 2009-09-26.34371 1.000E-05 01:43:17.080 1.500E-01 0.500 F -0.152 -0.003 +08° 49' 56.20" 1.000E-01 0.500 F 0.272 -0.158 19.9 V 0.70 -0.12 o 691 0.34 Yes Yes
1998SO10 O C H 2009-09-26.34862 1.000E-05 02:01:21.410 1.500E-01 0.500 F -0.229 0.659 +07° 37' 14.10" 1.000E-01 0.500 F 0.255 -0.314 o 691 1.46 Yes No
1996MO O C H 2009-09-26.35369 1.000E-05 01:51:32.980 1.500E-01 0.500 F -0.106 -0.124 +05° 39' 29.40" 1.000E-01 0.500 F 0.132 -0.527 o 691 1.09 Yes No
2009SS104 O C 2009-09-26.36131 1.000E-05 01:43:19.440 1.500E-01 0.500 F -0.172 0.007 +08° 49' 07.00" 1.000E-01 0.500 F 0.260 -0.062 19.9 V 0.70 -0.12 o 691 0.13 Yes Yes
1998SO10 O C H 2009-09-26.36623 1.000E-05 02:01:20.370 1.500E-01 0.500 F -0.229 0.045 +07° 37' 03.00" 1.000E-01 0.500 F 0.255 -0.805 o 691 1.61 Yes No
1996MO O C H 2009-09-26.37130 1.000E-05 01:51:31.950 1.500E-01 0.500 F -0.106 0.150 +05° 39' 20.30" 1.000E-01 0.500 F 0.132 -0.286 o 691 0.65 Yes No
2009SS104 O C 2009-09-26.37892 1.000E-05 01:43:21.790 1.500E-01 0.500 F -0.172 -0.157 +08° 48' 17.60" 1.000E-01 0.500 F 0.260 -0.086 19.7 V 0.70 -0.32 o 691 0.38 Yes Yes
1998SO10 O C H 2009-09-26.38383 1.000E-05 02:01:19.400 1.500E-01 0.500 F -0.229 0.470 +07° 36' 52.40" 1.000E-01 0.500 F 0.255 -0.797 o 691 1.85 Yes No
1996MO O C H 2009-09-26.38890 1.000E-05 01:51:30.950 1.500E-01 0.500 F -0.106 0.871 +05° 39' 10.70" 1.000E-01 0.500 F 0.132 -0.541 o 691 2.05 Yes No
Seleucus O C 2009-09-26.40284 1.000E-05 02:05:28.700 1.500E-01 0.500 F -0.270 -0.407 +14° 59' 13.90" 1.000E-01 0.500 F 0.187 -0.399 20.1 V 0.70 0.27 o 691 1.14 Yes Yes
Seleucus O C 2009-09-26.42049 1.000E-05 02:05:27.830 1.500E-01 0.500 F -0.270 -0.063 +14° 59' 08.70" 1.000E-01 0.500 F 0.187 -0.158 20.1 V 0.70 0.27 o 691 0.34 Yes Yes
Seleucus O C 2009-09-26.43814 1.000E-05 02:05:26.930 1.500E-01 0.500 F -0.270 -0.159 +14° 59' 03.30" 1.000E-01 0.500 F 0.187 -0.104 20.3 V 0.70 0.47 o 691 0.38 Yes Yes
1998QQ63 O C H 2009-09-26.48884 1.000E-05 07:26:20.490 1.500E-01 0.500 F -0.019 0.019 +20° 28' 12.50" 1.000E-01 0.500 F 0.209 -0.580 21.2 V 0.70 -0.21 o 691 1.17 Yes Yes
1991WA O C H 2009-09-26.50400 1.000E-05 07:35:53.110 1.500E-01 0.500 F -0.037 -0.411 +20° 02' 20.40" 1.000E-01 0.500 F 0.254 0.152 o 691 0.88 Yes No
1991WA O C H 2009-09-26.52015 1.000E-05 07:35:54.150 1.500E-01 0.500 F -0.037 -0.434 +20° 02' 38.90" 1.000E-01 0.500 F 0.254 -1.284 19.5 V 0.70 -0.07 o 691 2.71 Yes Yes
1990TG1 O C 2009-09-27.28898 1.000E-05 01:15:41.510 1.500E-01 0.500 F -0.215 -0.017 +10° 43' 18.90" 1.000E-01 0.500 F 0.309 0.168 18.5 V 0.70 0.23 o 691 0.34 Yes Yes
Orpheus O C 2009-09-27.29910 1.000E-05 01:22:32.840 1.500E-01 0.500 F -0.163 -0.133 +08° 53' 22.20" 1.000E-01 0.500 F 0.235 -0.026 18.4 V 0.70 0.26 o 691 0.27 Yes Yes
1990TG1 O C 2009-09-27.30666 1.000E-05 01:15:40.130 1.500E-01 0.500 F -0.215 -0.098 +10° 43' 08.30" 1.000E-01 0.500 F 0.309 0.267 19.7 V 0.70 1.43 o 691 0.57 Yes Yes
Orpheus O C 2009-09-27.31676 1.000E-05 01:22:31.360 1.500E-01 0.500 F -0.163 -0.324 +08° 53' 07.00" 1.000E-01 0.500 F 0.235 -0.034 18.4 V 0.70 0.26 o 691 0.65 Yes Yes
1990TG1 O C 2009-09-27.32430 1.000E-05 01:15:38.760 1.500E-01 0.500 F -0.215 -0.063 +10° 42' 57.40" 1.000E-01 0.500 F 0.309 0.053 18.6 V 0.70 0.33 o 691 0.17 Yes Yes
Orpheus O C 2009-09-27.33440 1.000E-05 01:22:29.890 1.500E-01 0.500 F -0.163 -0.309 +08° 52' 51.80" 1.000E-01 0.500 F 0.235 -0.001 18.4 V 0.70 0.26 o 691 0.62 Yes Yes
2000TQ64 O C H 2009-09-27.35680 1.000E-05 01:40:48.350 1.500E-01 0.500 F -0.122 0.301 +09° 38' 54.70" 1.000E-01 0.500 F 0.264 0.660 20.9 V 0.70 -0.35 o 691 1.46 Yes Yes
2000TQ64 O C H 2009-09-27.37445 1.000E-05 01:40:47.070 1.500E-01 0.500 F -0.122 0.416 +09° 38' 50.50" 1.000E-01 0.500 F 0.264 -0.231 o 691 0.95 Yes No
2009SW171 O C 2009-09-28.35354 1.000E-05 01:38:04.310 1.500E-01 0.500 F -0.345 -0.130 +12° 48' 24.30" 1.000E-01 0.500 F 0.153 -0.021 20.9 V 0.70 0.36 o 691 0.28 Yes Yes
2009SW171 O C 2009-09-28.37122 1.000E-05 01:38:08.280 1.500E-01 0.500 F -0.345 -0.599 +12° 47' 21.50" 1.000E-01 0.500 F 0.153 0.760 20.9 V 0.70 0.35 o 691 2.12 Yes Yes
2009SW171 O C 2009-09-28.38892 1.000E-05 01:38:12.330 1.500E-01 0.500 F -0.345 -0.016 +12° 46' 16.30" 1.000E-01 0.500 F 0.153 -0.419 21.1 V 0.70 0.55 o 691 0.91 Yes Yes
2005CK38 O C H 2009-09-28.41404 1.000E-05 02:13:22.200 1.500E-01 0.500 F -0.249 -0.202 +17° 15' 41.00" 1.000E-01 0.500 F 0.231 0.093 o 691 0.45 Yes No
2005CK38 O C H 2009-09-28.43169 1.000E-05 02:13:21.240 1.500E-01 0.500 F -0.249 -0.152 +17° 15' 38.20" 1.000E-01 0.500 F 0.231 -0.799 o 691 1.63 Yes No
2005CK38 O C H 2009-09-28.44933 1.000E-05 02:13:20.330 1.500E-01 0.500 F -0.249 0.598 +17° 15' 37.20" 1.000E-01 0.500 F 0.231 0.122 o 691 1.23 Yes No
2002OD20 O C H 2009-09-28.48214 1.000E-05 07:05:17.030 1.500E-01 0.500 F -0.075 -0.096 +24° 21' 28.60" 1.000E-01 0.500 F 0.208 -0.254 21.2 V 0.70 -0.45 o 691 0.54 Yes Yes
2001SX169 O C 2009-09-29.23035 1.000E-05 01:09:04.850 1.500E-01 0.500 F -0.146 -0.619 +02° 04' 53.90" 1.000E-01 0.500 F 0.197 -0.206 20.7 V 0.70 0.74 o 691 1.31 Yes Yes
2001SX169 O C 2009-09-29.24796 1.000E-05 01:09:03.030 1.500E-01 0.500 F -0.146 -0.104 +02° 04' 40.70" 1.000E-01 0.500 F 0.197 -0.144 20.0 V 0.70 0.04 o 691 0.36 Yes Yes
2001SX169 O C 2009-09-29.26558 1.000E-05 01:09:01.160 1.500E-01 0.500 F -0.146 -0.258 +02° 04' 27.10" 1.000E-01 0.500 F 0.197 -0.469 20.1 V 0.70 0.14 o 691 1.07 Yes Yes
2009SB100 O C t 2009-09-29.33429 1.000E-05 01:30:53.070 1.500E-01 0.500 F -0.200 0.178 +18° 31' 37.60" 1.000E-01 0.500 F 0.272 -0.222 18.8 V 0.70 0.10 o 691 0.60 Yes Yes
2003TK O C H 2009-09-29.35192 1.000E-05 01:34:50.230 1.500E-01 0.500 F -0.239 -0.375 +18° 18' 39.00" 1.000E-01 0.500 F 0.265 0.195 21.0 V 0.70 -0.52 o 691 0.86 Yes Yes
2009SB100 O C t 2009-09-29.35192 1.000E-05 01:31:05.520 1.500E-01 0.500 F -0.200 0.474 +18° 30' 08.30" 1.000E-01 0.500 F 0.272 -0.587 18.7 V 0.70 0.00 o 691 1.60 Yes Yes
2003TK O C H 2009-09-29.36957 1.000E-05 01:34:48.760 1.500E-01 0.500 F -0.239 -0.086 +18° 18' 29.80" 1.000E-01 0.500 F 0.265 0.131 21.5 V 0.70 -0.02 o 691 0.32 Yes Yes
2009SB100 O C t 2009-09-29.36957 1.000E-05 01:31:17.950 1.500E-01 0.500 F -0.239 0.496 +18° 28' 38.70" 1.000E-01 0.500 F 0.265 -0.653 18.8 V 0.70 0.10 o 691 1.74 Yes Yes
1998SO10 O C 2009-09-29.38922 1.000E-05 01:58:29.090 1.500E-01 0.500 F -0.229 -0.367 +07° 06' 24.80" 1.000E-01 0.500 F 0.255 -0.204 20.8 V 0.70 0.00 o 691 0.84 Yes Yes
1998SO10 O C 2009-09-29.40722 1.000E-05 01:58:28.040 1.500E-01 0.500 F -0.180 -0.263 +07° 06' 14.00" 1.000E-01 0.500 F 0.136 0.162 20.6 V 0.70 -0.20 o 691 0.62 Yes Yes
1998SO10 O C 2009-09-29.42482 1.000E-05 01:58:27.000 1.500E-01 0.500 F -0.180 -0.317 +07° 06' 03.20" 1.000E-01 0.500 F 0.136 0.169 20.9 V 0.70 0.10 o 691 0.72 Yes Yes
2002VV17 O C t 2009-09-29.46530 1.000E-05 07:26:50.870 1.500E-01 0.500 F -0.009 0.365 +19° 38' 54.70" 1.000E-01 0.500 F 0.183 0.293 21.8 V 0.70 -0.36 o 691 0.94 Yes Yes
2002VV17 O C t 2009-09-29.47797 1.000E-05 07:26:53.600 1.500E-01 0.500 F -0.009 0.141 +19° 38' 42.20" 1.000E-01 0.500 F 0.183 0.592 21.9 V 0.70 -0.26 o 691 1.22 Yes Yes
1999VT25 O C H 2009-10-23.30701 1.000E-05 03:23:46.000 1.500E-01 0.500 F -0.240 -0.356 +19° 50' 02.10" 1.000E-01 0.500 F 0.333 -0.776 21.2 V 0.70 -0.11 o 691 1.71 Yes Yes
1999VT25 O C H 2009-10-23.32417 1.000E-05 03:23:43.880 1.500E-01 0.500 F -0.240 -2.516 +19° 49' 47.70" 1.000E-01 0.500 F 0.333 -2.449 21.1 V 0.70 -0.21 o 691 7.00 No Yes
1999VT25 O C H 2009-10-23.34134 1.000E-05 03:23:42.130 1.500E-01 0.500 F -0.240 0.630 +19° 49' 37.40" 1.000E-01 0.500 F 0.333 0.056 20.9 V 0.70 -0.41 o 691 1.27 Yes Yes
1999GT6 O C 2009-10-23.38019 1.000E-05 03:52:17.550 1.500E-01 0.500 F -0.093 -0.285 +17° 45' 50.00" 1.000E-01 0.500 F 0.157 -0.058 20.8 V 0.70 -0.57 o 691 0.59 Yes Yes
1999GT6 O C 2009-10-23.39744 1.000E-05 03:52:16.510 1.500E-01 0.500 F -0.093 0.050 +17° 45' 45.60" 1.000E-01 0.500 F 0.157 0.229 21.3 V 0.70 -0.07 o 691 0.47 Yes Yes
1999GT6 O C 2009-10-23.41462 1.000E-05 03:52:15.430 1.500E-01 0.500 F -0.093 -0.247 +17° 45' 40.50" 1.000E-01 0.500 F 0.157 -0.187 20.9 V 0.70 -0.47 o 691 0.62 Yes Yes
2001OZ13 O C 2009-10-23.48014 1.000E-05 08:50:06.820 1.500E-01 0.500 F 0.115 -0.505 +14° 07' 04.10" 1.000E-01 0.500 F 0.121 -0.085 20.2 V 0.70 -0.23 o 691 1.02 Yes Yes
2001OZ13 O C 2009-10-23.49228 1.000E-05 08:50:09.150 1.500E-01 0.500 F 0.115 -0.946 +14° 06' 59.90" 1.000E-01 0.500 F 0.121 -0.262 21.0 V 0.70 0.57 o 691 1.96 Yes Yes
2001OZ13 O C 2009-10-23.50442 1.000E-05 08:50:11.550 1.500E-01 0.500 F 0.115 -0.346 +14° 06' 56.00" 1.000E-01 0.500 F 0.121 -0.130 21.0 V 0.70 0.57 o 691 0.74 Yes Yes
2009RD1 O C t 2009-10-24.08900 1.000E-05 23:45:05.420 1.500E-01 0.500 F -0.110 0.263 +03° 18' 19.50" 1.000E-01 0.500 F 0.256 -0.989 19.3 V 0.70 -0.16 o 691 2.12 Yes Yes
2009TL4 O C 2009-10-24.09419 1.000E-05 23:52:07.330 1.500E-01 0.500 F -0.195 -0.001 +04° 02' 15.80" 1.000E-01 0.500 F 0.285 -0.052 o 691 0.11 Yes No
2009RD1 O C t 2009-10-24.11046 1.000E-05 23:45:08.770 1.500E-01 0.500 F -0.110 0.778 +03° 18' 47.80" 1.000E-01 0.500 F 0.256 -0.450 19.4 V 0.70 -0.06 o 691 1.87 Yes Yes
2009TL4 O C 2009-10-24.11564 1.000E-05 23:52:12.740 1.500E-01 0.500 F -0.195 -0.155 +04° 01' 50.20" 1.000E-01 0.500 F 0.285 -0.116 o 691 0.39 Yes No
2009RD1 O C t 2009-10-24.13193 1.000E-05 23:45:12.030 1.500E-01 0.500 F -0.110 0.202 +03° 19' 15.10" 1.000E-01 0.500 F 0.256 -0.890 19.7 V 0.70 0.24 o 691 1.89 Yes Yes
2009TL4 O C 2009-10-24.13712 1.000E-05 23:52:18.160 1.500E-01 0.500 F -0.195 0.194 +04° 01' 24.40" 1.000E-01 0.500 F 0.285 -0.315 o 691 0.76 Yes No
2006BC10 O C H 2009-10-24.14518 1.000E-05 01:50:06.820 1.500E-01 0.500 F -0.111 0.101 +11° 36' 20.20" 1.000E-01 0.500 F 0.255 0.230 21.1 V 0.70 -0.31 o 691 0.50 Yes Yes
2006BC10 O C H 2009-10-24.17952 1.000E-05 01:50:03.320 1.500E-01 0.500 F -0.111 0.176 +11° 36' 02.10" 1.000E-01 0.500 F 0.255 0.164 20.9 V 0.70 -0.51 o 691 0.48 Yes Yes
2002KL6 O C 2009-10-24.20884 1.000E-05 02:20:50.950 1.500E-01 0.500 F -0.222 -0.216 +14° 20' 40.40" 1.000E-01 0.500 F 0.215 -0.119 o 691 0.49 Yes No
2005UK1 O C 2009-10-24.21124 1.000E-05 02:27:47.700 1.500E-01 0.500 F -0.167 -0.630 +13° 47' 01.00" 1.000E-01 0.500 F 0.170 0.230 o 691 1.34 Yes No
2002KL6 O C 2009-10-24.22603 1.000E-05 02:20:49.500 1.500E-01 0.500 F -0.222 -0.128 +14° 20' 27.70" 1.000E-01 0.500 F 0.215 -0.015 o 691 0.26 Yes No
2005UK1 O C 2009-10-24.22842 1.000E-05 02:27:46.280 1.500E-01 0.500 F -0.167 -0.397 +13° 46' 53.60" 1.000E-01 0.500 F 0.170 0.042 o 691 0.80 Yes No
2002KL6 O C 2009-10-24.24320 1.000E-05 02:20:48.040 1.500E-01 0.500 F -0.222 -0.123 +14° 20' 14.80" 1.000E-01 0.500 F 0.215 -0.094 o 691 0.31 Yes No
2005UK1 O C 2009-10-24.24560 1.000E-05 02:27:44.840 1.500E-01 0.500 F -0.167 -0.413 +13° 46' 46.20" 1.000E-01 0.500 F 0.170 -0.132 o 691 0.87 Yes No
1999HY1 O C t 2009-10-24.30957 1.000E-05 02:44:23.820 1.500E-01 0.500 F -0.339 0.007 +19° 50' 57.70" 1.000E-01 0.500 F 0.220 -0.070 17.5 V 0.70 0.24 o 691 0.14 Yes Yes
1999HY1 O C t 2009-10-24.32675 1.000E-05 02:44:22.020 1.500E-01 0.500 F -0.339 0.183 +19° 49' 27.00" 1.000E-01 0.500 F 0.220 -0.529 17.6 V 0.70 0.35 o 691 1.13 Yes Yes
2007DA41 O C 2009-10-24.35118 1.000E-05 03:21:15.080 1.500E-01 0.500 F -0.274 -0.210 +22° 33' 54.10" 1.000E-01 0.500 F 0.193 -0.011 o 691 0.42 Yes No
2001UW16 O C 2009-10-24.35358 1.000E-05 03:33:50.120 1.500E-01 0.500 F -0.188 -0.243 +22° 54' 47.60" 1.000E-01 0.500 F 0.215 -0.048 o 691 0.50 Yes No
2007DA41 O C 2009-10-24.36859 1.000E-05 03:21:13.170 1.500E-01 0.500 F -0.274 -0.490 +22° 33' 30.70" 1.000E-01 0.500 F 0.193 -0.155 o 691 1.03 Yes No
2001UW16 O C 2009-10-24.37099 1.000E-05 03:33:46.180 1.500E-01 0.500 F -0.188 -0.332 +22° 55' 54.50" 1.000E-01 0.500 F 0.215 -0.039 o 691 0.67 Yes No
2007DA41 O C 2009-10-24.38586 1.000E-05 03:21:11.320 1.500E-01 0.500 F -0.274 -0.149 +22° 33' 07.60" 1.000E-01 0.500 F 0.193 -0.146 o 691 0.42 Yes No
2001UW16 O C 2009-10-24.38825 1.000E-05 03:33:42.310 1.500E-01 0.500 F -0.188 0.126 +22° 57' 00.50" 1.000E-01 0.500 F 0.215 -0.293 o 691 0.64 Yes No
1996DH O C 2009-10-24.47012 1.000E-05 09:37:15.850 1.500E-01 0.500 F 0.103 -0.365 +19° 25' 13.50" 1.000E-01 0.500 F 0.351 0.073 o 691 0.75 Yes No
Apollo O C 2009-10-24.47252 1.000E-05 09:46:48.290 1.500E-01 0.500 F 0.128 0.014 +19° 35' 39.60" 1.000E-01 0.500 F 0.395 -0.061 o 691 0.13 Yes No
1996DH O C 2009-10-24.48226 1.000E-05 09:37:16.890 1.500E-01 0.500 F 0.103 -0.208 +19° 25' 05.80" 1.000E-01 0.500 F 0.351 -0.269 o 691 0.68 Yes No
Apollo O C 2009-10-24.48466 1.000E-05 09:46:49.280 1.500E-01 0.500 F 0.128 0.822 +19° 35' 37.80" 1.000E-01 0.500 F 0.395 0.937 o 691 2.49 Yes No
1996DH O C 2009-10-24.49441 1.000E-05 09:37:17.910 1.500E-01 0.500 F 0.103 -0.330 +19° 24' 58.70" 1.000E-01 0.500 F 0.351 0.001 o 691 0.66 Yes No
Apollo O C 2009-10-24.49681 1.000E-05 09:46:50.130 1.500E-01 0.500 F 0.128 -0.342 +19° 35' 34.00" 1.000E-01 0.500 F 0.395 -0.059 o 691 0.69 Yes No
2009UQ5 O C 2009-10-25.14873 1.000E-05 01:58:49.040 1.500E-01 0.500 F -0.244 -0.288 +15° 20' 20.10" 1.000E-01 0.500 F 0.176 0.191 o 691 0.71 Yes No
2009UQ5 O C 2009-10-25.16591 1.000E-05 01:58:53.970 1.500E-01 0.500 F -0.244 0.082 +15° 20' 15.00" 1.000E-01 0.500 F 0.176 -0.150 o 691 0.35 Yes No
2009UQ5 O C 2009-10-25.18309 1.000E-05 01:58:58.810 1.500E-01 0.500 F -0.244 -0.341 +15° 20' 10.30" 1.000E-01 0.500 F 0.176 0.048 o 691 0.71 Yes No
2009UK20 O C 2009-10-25.20928 1.000E-05 02:16:17.420 1.500E-01 0.500 F -0.277 -0.508 +17° 45' 25.60" 1.000E-01 0.500 F 0.271 0.104 20.9 V 0.70 -0.06 o 691 1.08 Yes Yes
2009UK20 O C 2009-10-25.22989 1.000E-05 02:16:14.620 1.500E-01 0.500 F -0.277 -0.080 +17° 44' 34.50" 1.000E-01 0.500 F 0.271 0.532 21.0 V 0.70 0.04 o 691 1.12 Yes Yes
2009UK20 O C 2009-10-25.24708 1.000E-05 02:16:12.180 1.500E-01 0.500 F -0.277 -0.384 +17° 43' 50.30" 1.000E-01 0.500 F 0.271 -0.183 20.8 V 0.70 -0.16 o 691 0.89 Yes Yes
2009US87 O C 2009-10-25.42333 1.000E-05 04:11:54.020 1.500E-01 0.500 F -0.098 0.203 +19° 09' 08.40" 1.000E-01 0.500 F 0.204 0.130 20.9 V 0.70 -0.31 o 691 0.49 Yes Yes
2009US87 O C 2009-10-25.44051 1.000E-05 04:11:54.710 1.500E-01 0.500 F -0.098 -0.055 +19° 09' 09.70" 1.000E-01 0.500 F 0.204 -0.253 21.1 V 0.70 -0.11 o 691 0.53 Yes Yes
2009US87 O C 2009-10-25.45769 1.000E-05 04:11:55.410 1.500E-01 0.500 F -0.098 -0.243 +19° 09' 11.10" 1.000E-01 0.500 F 0.204 -0.449 21.0 V 0.70 -0.21 o 691 1.04 Yes Yes
Chelyabinsk O C H 2009-10-25.49704 1.000E-05 09:39:08.150 1.500E-01 0.500 F 0.181 0.007 +17° 38' 58.50" 1.000E-01 0.500 F 0.317 0.010 19.2 V 0.70 0.52 o 691 0.02 Yes Yes
Chelyabinsk O C H 2009-10-25.50919 1.000E-05 09:39:08.900 1.500E-01 0.500 F 0.181 -0.178 +17° 38' 47.30" 1.000E-01 0.500 F 0.317 0.082 19.1 V 0.70 0.42 o 691 0.39 Yes Yes
2009UL28 O C 2009-10-26.19923 1.000E-05 02:39:12.550 1.500E-01 0.500 F -0.153 -0.752 +10° 26' 05.10" 1.000E-01 0.500 F 0.174 -0.080 20.0 V 0.70 0.00 o 691 1.73 Yes Yes
2009UC19 O C t 2009-10-26.19923 1.000E-05 02:36:37.280 1.500E-01 0.500 F -0.153 -0.920 +10° 04' 08.60" 1.000E-01 0.500 F 0.174 -3.148 19.4 V 0.70 0.59 o 691 5.92 No Yes
2009UL28 O C 2009-10-26.21643 1.000E-05 02:39:21.570 1.500E-01 0.500 F -0.055 0.133 +10° 25' 45.00" 1.000E-01 0.500 F 0.181 -0.040 20.1 V 0.70 0.10 o 691 0.31 Yes Yes
2009UC19 O C t 2009-10-26.21643 1.000E-05 02:36:31.560 1.500E-01 0.500 F -0.153 0.209 +09° 59' 36.70" 1.000E-01 0.500 F 0.174 -0.485 19.3 V 0.70 0.49 o 691 1.20 Yes Yes
2009UL28 O C 2009-10-26.23361 1.000E-05 02:39:30.680 1.500E-01 0.500 F -0.055 3.013 +10° 25' 24.40" 1.000E-01 0.500 F 0.181 -0.292 20.6 V 0.70 0.60 o 691 5.58 No Yes
2009UC19 O C t 2009-10-26.23361 1.000E-05 02:36:25.680 1.500E-01 0.500 F -0.153 -0.191 +09° 55' 01.60" 1.000E-01 0.500 F 0.174 -2.274 19.6 V 0.70 0.78 o 691 4.12 No Yes
2009UM O C H 2009-10-26.41214 1.000E-05 04:23:31.530 1.500E-01 0.500 F -0.047 0.362 +28° 11' 46.40" 1.000E-01 0.500 F 0.190 0.107 20.8 V 0.70 -0.20 o 691 0.77 Yes Yes
2002UN3 O C 2009-10-26.41214 1.000E-05 04:25:18.800 1.500E-01 0.500 F 0.050 -0.228 +28° 30' 19.20" 1.000E-01 0.500 F 0.088 -0.059 20.2 V 0.70 -0.09 o 691 0.48 Yes Yes
2009UM O C H 2009-10-26.42933 1.000E-05 04:23:27.570 1.500E-01 0.500 F -0.047 -0.649 +28° 12' 13.70" 1.000E-01 0.500 F 0.190 -0.141 21.1 V 0.70 0.10 o 691 1.36 Yes Yes
2002UN3 O C 2009-10-26.42933 1.000E-05 04:25:18.390 1.500E-01 0.500 F 0.050 -0.010 +28° 30' 31.70" 1.000E-01 0.500 F 0.088 0.040 20.3 V 0.70 0.01 o 691 0.08 Yes Yes
2009UM O C H 2009-10-26.44654 1.000E-05 04:23:23.750 1.500E-01 0.500 F -0.047 0.235 +28° 12' 41.40" 1.000E-01 0.500 F 0.190 0.086 o 691 0.51 Yes No
2002UN3 O C 2009-10-26.44654 1.000E-05 04:25:17.950 1.500E-01 0.500 F 0.050 -0.191 +28° 30' 43.80" 1.000E-01 0.500 F 0.088 -0.221 20.4 V 0.70 0.11 o 691 0.59 Yes Yes
2002XA40 O C t 2009-10-26.46776 1.000E-05 09:29:55.190 1.500E-01 0.500 F 0.017 1.355 +15° 36' 58.10" 1.000E-01 0.500 F 0.263 -1.006 21.6 V 0.70 0.25 o 691 3.37 No Yes
Mithra O C 2009-10-26.47256 1.000E-05 09:42:14.930 1.500E-01 0.500 F 0.044 -0.280 +15° 33' 17.80" 1.000E-01 0.500 F 0.298 -0.155 20.2 V 0.70 -0.12 o 691 0.64 Yes Yes
2002XA40 O C H 2009-10-26.47990 1.000E-05 09:29:56.070 1.500E-01 0.500 F 0.017 0.411 +15° 36' 53.40" 1.000E-01 0.500 F 0.263 -0.201 21.0 V 0.70 -0.35 o 691 0.92 Yes Yes
Mithra O C 2009-10-26.48470 1.000E-05 09:42:16.050 1.500E-01 0.500 F 0.044 -0.373 +15° 33' 12.90" 1.000E-01 0.500 F 0.298 -0.183 20.0 V 0.70 -0.32 o 691 0.83 Yes Yes
2002XA40 O C H 2009-10-26.49203 1.000E-05 09:29:56.920 1.500E-01 0.500 F 0.017 -0.936 +15° 36' 47.70" 1.000E-01 0.500 F 0.263 -0.397 21.1 V 0.70 -0.25 o 691 2.03 Yes Yes
Mithra O C 2009-10-26.49683 1.000E-05 09:42:17.200 1.500E-01 0.500 F 0.044 -0.006 +15° 33' 08.00" 1.000E-01 0.500 F 0.298 -0.211 20.1 V 0.70 -0.22 o 691 0.42 Yes Yes
2009SO103 O C t 2009-10-27.07744 1.000E-05 23:37:58.780 1.500E-01 0.500 F -0.173 0.849 -02° 11' 29.70" 1.000E-01 0.500 F 0.258 -0.101 o 691 1.74 Yes No
2009RD1 O C t 2009-10-27.11253 1.000E-05 23:53:11.380 1.500E-01 0.500 F -0.148 0.307 +04° 21' 16.30" 1.000E-01 0.500 F 0.254 -0.306 19.8 V 0.70 0.21 o 691 0.90 Yes Yes
2009SO103 O C t 2009-10-27.12044 1.000E-05 23:37:55.170 1.500E-01 0.500 F -0.173 0.523 -02° 12' 44.50" 1.000E-01 0.500 F 0.258 -0.326 o 691 1.25 Yes No
2009RD1 O C t 2009-10-27.13114 1.000E-05 23:53:14.200 1.500E-01 0.500 F -0.148 0.770 +04° 21' 38.90" 1.000E-01 0.500 F 0.254 -0.335 19.7 V 0.70 0.11 o 691 1.76 Yes Yes
1999GT6 O C H 2009-10-27.37302 1.000E-05 03:48:10.500 1.500E-01 0.500 F -0.194 -0.186 +17° 27' 20.40" 1.000E-01 0.500 F 0.231 0.151 20.9 V 0.70 -0.42 o 691 0.48 Yes Yes
1999GT6 O C H 2009-10-27.40749 1.000E-05 03:48:08.250 1.500E-01 0.500 F -0.194 -0.059 +17° 27' 10.30" 1.000E-01 0.500 F 0.231 -0.119 21.0 V 0.70 -0.32 o 691 0.27 Yes Yes
2001OZ13 O C 2009-10-27.47266 1.000E-05 09:03:13.730 1.500E-01 0.500 F -0.057 -0.313 +13° 43' 51.20" 1.000E-01 0.500 F 0.198 0.412 o 691 1.04 Yes No
2002WQ O C H 2009-10-27.47507 1.000E-05 09:07:17.250 1.500E-01 0.500 F 0.023 -0.337 +14° 10' 35.90" 1.000E-01 0.500 F 0.174 0.136 20.7 V 0.70 0.01 o 691 0.75 Yes Yes
2001OZ13 O C 2009-10-27.48481 1.000E-05 09:03:16.130 1.500E-01 0.500 F -0.057 0.147 +13° 43' 46.70" 1.000E-01 0.500 F 0.198 0.203 o 691 0.50 Yes No
2002WQ O C H 2009-10-27.48721 1.000E-05 09:07:19.530 1.500E-01 0.500 F 0.023 -0.893 +14° 10' 54.00" 1.000E-01 0.500 F 0.174 0.094 21.0 V 0.70 0.31 o 691 1.91 Yes Yes
2001OZ13 O C 2009-10-27.49695 1.000E-05 09:03:18.460 1.500E-01 0.500 F -0.057 -0.360 +13° 43' 42.20" 1.000E-01 0.500 F 0.198 -0.002 o 691 0.72 Yes No
2002WQ O C H 2009-10-27.49936 1.000E-05 09:07:21.920 1.500E-01 0.500 F 0.023 0.150 +14° 11' 11.20" 1.000E-01 0.500 F 0.174 -0.856 o 691 1.79 Yes No
1999VL12 O C 2009-11-08.14680 1.000E-05 03:13:54.240 1.500E-01 0.500 F -0.254 -0.098 +22° 54' 54.80" 1.000E-01 0.500 F 0.243 -0.005 18.7 V 0.70 0.32 o 691 0.20 Yes Yes
1999VL12 O C 2009-11-08.16398 1.000E-05 03:13:52.580 1.500E-01 0.500 F -0.254 -0.086 +22° 54' 30.30" 1.000E-01 0.500 F 0.243 -0.194 18.9 V 0.70 0.52 o 691 0.43 Yes Yes
1999VL12 O C 2009-11-08.18116 1.000E-05 03:13:50.890 1.500E-01 0.500 F -0.254 -0.403 +22° 54' 06.00" 1.000E-01 0.500 F 0.243 -0.156 19.2 V 0.70 0.82 o 691 0.87 Yes Yes
2007XJ20 O C H 2009-11-08.20666 1.000E-05 03:37:45.860 1.500E-01 0.500 F -0.172 -0.872 +17° 54' 21.50" 1.000E-01 0.500 F 0.149 -0.096 21.3 V 0.70 -0.36 o 691 1.76 Yes Yes
2007XJ20 O C H 2009-11-08.22384 1.000E-05 03:37:44.270 1.500E-01 0.500 F -0.172 0.564 +17° 54' 19.70" 1.000E-01 0.500 F 0.149 0.406 21.2 V 0.70 -0.45 o 691 1.39 Yes Yes
2007XJ20 O C H 2009-11-08.24102 1.000E-05 03:37:42.560 1.500E-01 0.500 F -0.172 0.331 +17° 54' 17.30" 1.000E-01 0.500 F 0.149 0.324 o 691 0.93 Yes No
2006WN1 O C H 2009-11-08.41871 1.000E-05 05:10:51.950 1.500E-01 0.500 F -0.094 0.039 +22° 56' 19.70" 1.000E-01 0.500 F 0.119 -0.408 20.2 V 0.70 0.04 o 691 0.82 Yes Yes
1990UA O C H 2009-11-08.44312 1.000E-05 05:37:17.590 1.500E-01 0.500 F -0.007 -0.144 +21° 43' 11.30" 1.000E-01 0.500 F 0.178 0.022 20.9 V 0.70 0.38 o 691 0.30 Yes Yes
2006WN1 O C H 2009-11-08.45311 1.000E-05 05:10:49.070 1.500E-01 0.500 F -0.094 0.097 +22° 56' 07.00" 1.000E-01 0.500 F 0.119 -0.063 20.1 V 0.70 -0.06 o 691 0.23 Yes Yes
1990UA O C H 2009-11-08.46030 1.000E-05 05:37:15.150 1.500E-01 0.500 F -0.007 -0.332 +21° 43' 09.90" 1.000E-01 0.500 F 0.178 -0.560 o 691 1.33 Yes No
2001SG286 O C H 2009-11-09.37436 1.000E-05 04:56:40.440 1.500E-01 0.500 F -0.241 0.922 +24° 39' 36.40" 1.000E-01 0.500 F 0.130 -0.216 21.5 V 0.70 0.35 o 691 1.91 Yes Yes
2006XA O C H 2009-11-09.42628 1.000E-05 05:20:36.930 1.500E-01 0.500 F -0.025 -0.594 +24° 55' 55.80" 1.000E-01 0.500 F 0.029 -0.380 20.5 V 0.70 -0.33 o 691 1.41 Yes Yes
2006XA O C H 2009-11-09.44350 1.000E-05 05:20:36.150 1.500E-01 0.500 F -0.025 -0.363 +24° 55' 51.20" 1.000E-01 0.500 F 0.029 -0.770 o 691 1.70 Yes No
2006XA O C H 2009-11-09.46070 1.000E-05 05:20:35.370 1.500E-01 0.500 F -0.025 -0.153 +24° 55' 47.50" 1.000E-01 0.500 F 0.029 -0.237 o 691 0.56 Yes No
2009US87 O C H 2009-11-10.22940 1.000E-05 04:19:47.570 1.500E-01 0.500 F -0.189 -0.416 +19° 29' 03.90" 1.000E-01 0.500 F 0.213 0.090 20.8 V 0.70 0.26 o 691 0.87 Yes Yes
2009US87 O C H 2009-11-10.24661 1.000E-05 04:19:47.600 1.500E-01 0.500 F -0.189 0.121 +19° 29' 04.90" 1.000E-01 0.500 F 0.213 -0.408 20.6 V 0.70 0.06 o 691 0.87 Yes Yes
2001US16 O C t 2009-11-10.25401 1.000E-05 04:17:32.450 1.500E-01 0.500 F -0.129 -0.091 +17° 27' 42.70" 1.000E-01 0.500 F 0.248 -0.384 o 691 0.79 Yes No
2009US87 O C H 2009-11-10.26381 1.000E-05 04:19:47.570 1.500E-01 0.500 F -0.189 0.016 +19° 29' 06.10" 1.000E-01 0.500 F 0.213 -0.621 20.5 V 0.70 -0.04 o 691 1.27 Yes Yes
2001US16 O C t 2009-11-10.27121 1.000E-05 04:17:30.580 1.500E-01 0.500 F -0.129 0.067 +17° 27' 36.60" 1.000E-01 0.500 F 0.248 -0.237 o 691 0.49 Yes No
2009KK8 O C 2009-11-10.28842 1.000E-05 04:34:15.940 1.500E-01 0.500 F -0.168 0.215 +17° 37' 32.70" 1.000E-01 0.500 F 0.237 -0.112 20.0 V 0.70 -0.44 o 691 0.49 Yes Yes
2004BF68 O C H 2009-11-10.29082 1.000E-05 04:42:29.370 1.500E-01 0.500 F -0.137 0.027 +16° 55' 46.80" 1.000E-01 0.500 F 0.322 0.028 21.7 V 0.70 -0.10 o 691 0.08 Yes Yes
2009KK8 O C 2009-11-10.30562 1.000E-05 04:34:14.050 1.500E-01 0.500 F -0.168 0.126 +17° 37' 30.00" 1.000E-01 0.500 F 0.237 -0.099 20.0 V 0.70 -0.44 o 691 0.32 Yes Yes
2009KK8 O C 2009-11-10.32284 1.000E-05 04:34:12.140 1.500E-01 0.500 F -0.168 -0.178 +17° 37' 27.10" 1.000E-01 0.500 F 0.237 -0.253 20.0 V 0.70 -0.44 o 691 0.63 Yes Yes
2004BF68 O C H 2009-11-10.32524 1.000E-05 04:42:26.690 1.500E-01 0.500 F -0.137 -0.538 +16° 55' 35.30" 1.000E-01 0.500 F 0.322 1.152 21.4 V 0.70 -0.39 o 691 2.56 Yes Yes
2007UR3 O C H 2009-11-10.39285 1.000E-05 05:19:31.780 1.500E-01 0.500 F -0.204 0.177 +17° 33' 36.00" 1.000E-01 0.500 F 0.155 -0.480 o 691 1.03 Yes No
2001WT1 O C H 2009-11-10.40747 1.000E-05 05:43:25.020 1.500E-01 0.500 F -0.050 -0.335 +19° 35' 51.90" 1.000E-01 0.500 F 0.162 -0.678 o 691 1.52 Yes No
2007UR3 O C H 2009-11-10.41019 1.000E-05 05:19:33.040 1.500E-01 0.500 F -0.204 0.168 +17° 33' 31.20" 1.000E-01 0.500 F 0.155 -0.599 o 691 1.25 Yes No
2001WT1 O C H 2009-11-10.42482 1.000E-05 05:43:22.910 1.500E-01 0.500 F -0.050 -1.316 +19° 35' 57.60" 1.000E-01 0.500 F 0.162 -0.182 20.9 V 0.70 -0.17 o 691 2.67 Yes Yes
2007UR3 O C H 2009-11-10.42744 1.000E-05 05:19:34.310 1.500E-01 0.500 F -0.204 0.371 +17° 33' 26.90" 1.000E-01 0.500 F 0.155 -0.148 20.6 V 0.70 0.45 o 691 0.81 Yes Yes
2000XK44 O C t 2009-11-11.21364 1.000E-05 03:50:34.210 1.500E-01 0.500 F -0.186 0.197 +24° 13' 01.40" 1.000E-01 0.500 F 0.246 -0.019 o 691 0.40 Yes No
2000XK44 O C t 2009-11-11.23085 1.000E-05 03:50:35.770 1.500E-01 0.500 F -0.186 0.359 +24° 15' 56.00" 1.000E-01 0.500 F 0.246 -0.896 o 691 1.94 Yes No
2000XK44 O C t 2009-11-11.24807 1.000E-05 03:50:37.240 1.500E-01 0.500 F -0.186 -0.073 +24° 18' 51.40" 1.000E-01 0.500 F 0.246 -0.574 o 691 1.16 Yes No
2009VY25 O C 2009-11-11.25570 1.000E-05 04:04:39.940 1.500E-01 0.500 F -0.144 -0.288 +28° 56' 53.10" 1.000E-01 0.500 F 0.190 -0.137 21.2 V 0.70 0.05 o 691 0.65 Yes Yes
2009VY25 O C 2009-11-11.27291 1.000E-05 04:04:38.290 1.500E-01 0.500 F -0.144 -0.276 +28° 56' 46.90" 1.000E-01 0.500 F 0.190 -0.081 21.1 V 0.70 -0.05 o 691 0.59 Yes Yes
2009VY25 O C 2009-11-11.29012 1.000E-05 04:04:36.650 1.500E-01 0.500 F -0.144 -0.091 +28° 56' 40.50" 1.000E-01 0.500 F 0.190 -0.176 21.2 V 0.70 0.05 o 691 0.40 Yes Yes
2009QH2 O C H 2009-11-16.07830 1.000E-05 01:30:34.020 1.500E-01 0.500 F -0.230 0.011 +13° 55' 47.50" 1.000E-01 0.500 F 0.275 -0.661 21.2 V 0.70 0.11 o 691 1.38 Yes Yes
2009QH2 O C H 2009-11-16.09417 1.000E-05 01:30:35.150 1.500E-01 0.500 F -0.230 -0.193 +13° 55' 42.00" 1.000E-01 0.500 F 0.275 0.486 21.0 V 0.70 -0.09 o 691 1.09 Yes Yes
2009QH2 O C H 2009-11-16.11003 1.000E-05 01:30:36.290 1.500E-01 0.500 F -0.230 -0.122 +13° 55' 34.60" 1.000E-01 0.500 F 0.275 -0.248 21.1 V 0.70 0.01 o 691 0.58 Yes Yes
2006WN1 O C 2009-11-16.28504 1.000E-05 04:59:28.780 1.500E-01 0.500 F -0.251 0.018 +22° 05' 25.80" 1.000E-01 0.500 F 0.153 0.079 19.7 V 0.70 -0.34 o 691 0.16 Yes Yes
2001SG286 O C H 2009-11-16.29744 1.000E-05 04:40:00.260 1.500E-01 0.500 F -0.130 1.971 +22° 45' 56.50" 1.000E-01 0.500 F 0.127 -1.298 o 691 4.69 No No

[1-200] [201-400] [401-600] [601-800] [801-1000] [1001-1200] [1201-1400] [1401-1600] [1601-1800] [1801-2000] [2001-2200] [2201-2400] [2401-2600] [2601-2800] [2801-3000] [3001-3200] [3201-3400] [3401-3600] [3601-3800] [3801-4000] [4001-4200] [4201-4400] [4401-4600] [4601-4800] [4801-5000] [5001-5200] [5201-5400] [5401-5600] [5601-5800] [5801-6000] [6001-6200] [6201-6400] [6401-6600] [6601-6800] [6801-7000] [7001-7200] [7201-7400] [7401-7600] [7601-7800] [7801-8000] [8001-8200] [8201-8400] [8401-8600] [8601-8800] [8801-9000] [9001-9200] [9201-9400] [9401-9600] [9601-9800] [9801-10000] [10001-10200] [10201-10400] [10401-10600] [10601-10800] [10801-11000] [11001-11200] [11201-11400] [11401-11600] [11601-11800] [11801-12000] [12001-12200] [12201-12400] [12401-12600] [12601-12800] [12801-13000] [13001-13200] [13201-13400] [13401-13600] [13601-13800] [13801-14000] [14001-14200] [14201-14400] [14401-14600] [14601-14800] [14801-15000] [15001-15200] [15201-15400] [15401-15600] [15601-15800] [15801-16000] [16001-16200] [16201-16400] [16401-16600] [16601-16800] [16801-17000] [17001-17200] [17201-17400] [17401-17600] [17601-17800] [17801-18000] [18001-18200] [18201-18400] [18401-18600] [18601-18800] [18801-19000] [19001-19200] [19201-19400] [19401-19600] [19601-19800] [19801-20000] [20001-20200] [20201-20400] [20401-20600] [20601-20800] [20801-21000] [21001-21200] [21201-21400] [21401-21600] [21601-21800] [21801-22000] [22001-22200] [22201-22400] [22401-22600] [22601-22800] [22801-23000] [23001-23200] [23201-23400] [23401-23600] [23601-23800] [23801-24000] [24001-24200] [24201-24400] [24401-24600] [24601-24800] [24801-25000] [25001-25200] [25201-25400] [25401-25600] [25601-25800] [25801-26000] [26001-26200] [26201-26400] [26401-26600] [26601-26800] [26801-27000] [27001-27200] [27201-27400] [27401-27600] [27601-27800] [27801-28000] [28001-28200] [28201-28400] [28401-28600] [28601-28800] [28801-29000] [29001-29200] [29201-29400] [29401-29600] [29601-29800] [29801-30000] [30001-30200] [30201-30400] [30401-30600] [30601-30800] [30801-31000] [31001-31200] [31201-31400] [31401-31600] [31601-31800] [31801-32000] [32001-32200] [32201-32400] [32401-32600] [32601-32800] [32801-33000] [33001-33200] [33201-33400] [33401-33600] [33601-33800] [33801-34000] [34001-34200] [34201-34400] [34401-34600] [34601-34800] [34801-35000] [35001-35200] [35201-35400] [35401-35600] [35601-35800] [35801-36000] [36001-36200] [36201-36400] [36401-36600] [36601-36800] [36801-37000] [37001-37200] [37201-37400] [37401-37600] [37601-37800] [37801-38000] [38001-38200] [38201-38400] [38401-38600] [38601-38800] [38801-39000] [39001-39200] [39201-39400] [39401-39600] [39601-39800] [39801-40000] [40001-40200] [40201-40400] [40401-40600] [40601-40800] [40801-41000] [41001-41200] [41201-41400] [41401-41600] [41601-41800] [41801-42000] [42001-42200] [42201-42400] [42401-42600] [42601-42800] [42801-43000] [43001-43200] [43201-43400] [43401-43600] [43601-43800] [43801-44000] [44001-44200] [44201-44400] [44401-44600] [44601-44800] [44801-45000] [45001-45200] [45201-45400] [45401-45600] [45601-45800] [45801-46000] [46001-46200] [46201-46400] [46401-46600] [46601-46800] [46801-47000] [47001-47200] [47201-47400] [47401-47600] [47601-47800] [47801-48000] [48001-48200] [48201-48400] [48401-48600] [48601-48800] [48801-49000] [49001-49200] [49201-49400] [49401-49600] [49601-49800] [49801-50000] [50001-50200] [50201-50388]